Time;durP1;ratioP1;P1;durP2;ratioP2;P2;SDS_P1;SDS_P2;PMS_P1;PMS_P2;Temp;Humidity;BMP_temperature;BMP_pressure;BME280_temperature;BME280_humidity;BME280_pressure;Samples;Min_cycle;Max_cycle;Signal;HPM_P1;HPM_P2
2021/12/25 00:01:17;;;;;;;11.00;8.10;;;17.00;62.70;;;;;;5050696;28;20025;-84
2021/12/25 00:03:42;;;;;;;12.10;8.13;;;17.00;62.90;;;;;;5050733;28;20017;-86
2021/12/25 00:06:08;;;;;;;10.10;7.40;;;17.00;63.70;;;;;;5051124;28;20036;-86
2021/12/25 00:08:34;;;;;;;10.75;7.85;;;16.90;63.00;;;;;;5050620;28;20546;-84
2021/12/25 00:11:02;;;;;;;9.27;7.15;;;16.90;63.00;;;;;;5031635;28;20079;-84
2021/12/25 00:13:27;;;;;;;10.45;7.70;;;16.90;63.10;;;;;;5034267;28;20076;-81
2021/12/25 00:15:53;;;;;;;10.10;7.80;;;16.90;63.00;;;;;;5034849;28;20378;-86
2021/12/25 00:18:20;;;;;;;9.25;6.93;;;16.90;63.10;;;;;;5053454;28;20115;-87
2021/12/25 00:20:47;;;;;;;9.48;7.13;;;16.80;63.10;;;;;;5044031;28;20432;-86
2021/12/25 00:23:13;;;;;;;9.05;7.05;;;16.80;63.20;;;;;;5035584;28;20022;-86
2021/12/25 00:25:44;;;;;;;9.32;6.80;;;16.80;63.20;;;;;;5034744;28;20026;-84
2021/12/25 00:31:28;;;;;;;11.32;7.72;;;16.80;63.30;;;;;;5034669;28;20124;-85
2021/12/25 00:33:58;;;;;;;9.50;7.28;;;16.80;63.30;;;;;;5043367;28;20040;-85
2021/12/25 00:36:25;;;;;;;9.77;7.30;;;16.70;63.30;;;;;;5036989;28;20119;-85
2021/12/25 00:38:52;;;;;;;10.23;7.45;;;16.70;63.40;;;;;;5054558;28;20036;-85
2021/12/25 00:41:20;;;;;;;10.30;7.57;;;16.70;63.40;;;;;;5040482;28;20504;-85
2021/12/25 00:43:47;;;;;;;9.30;7.13;;;16.70;63.40;;;;;;5036475;28;20029;-85
2021/12/25 00:46:13;;;;;;;10.57;7.40;;;16.70;63.50;;;;;;5054756;28;20043;-85
2021/12/25 00:48:39;;;;;;;9.32;7.00;;;16.70;63.40;;;;;;5054164;28;20107;-84
2021/12/25 00:51:05;;;;;;;10.20;7.38;;;16.60;63.40;;;;;;5054847;28;20476;-84
2021/12/25 00:53:31;;;;;;;9.13;6.70;;;16.60;63.50;;;;;;5054699;28;20017;-84
2021/12/25 00:55:57;;;;;;;10.07;6.63;;;16.60;63.60;;;;;;5036263;28;20052;-83
2021/12/25 00:58:22;;;;;;;8.05;5.95;;;16.60;63.60;;;;;;5054271;28;20032;-85
2021/12/25 01:00:49;;;;;;;10.00;6.53;;;16.60;63.60;;;;;;5054063;28;20033;-84
2021/12/25 01:03:15;;;;;;;8.93;6.38;;;16.60;63.60;;;;;;5054389;28;20021;-84
2021/12/25 01:05:41;;;;;;;7.95;5.95;;;16.50;63.70;;;;;;5053938;28;20385;-84
2021/12/25 01:08:07;;;;;;;8.43;6.47;;;16.50;63.60;;;;;;5054066;28;20025;-84
2021/12/25 01:10:34;;;;;;;7.80;6.15;;;16.50;63.70;;;;;;5045178;28;20374;-85
2021/12/25 01:15:38;;;;;;;9.27;6.30;;;16.50;63.90;;;;;;5034370;28;20088;-84
2021/12/25 01:31:13;;;;;;;8.40;6.47;;;16.40;64.10;;;;;;5033472;28;20124;-84
2021/12/25 01:34:26;;;;;;;7.30;5.53;;;16.40;64.40;;;;;;5033351;28;20021;-83
2021/12/25 01:39:22;;;;;;;8.52;6.70;;;16.30;64.70;;;;;;5002811;28;20038;-83
2021/12/25 01:49:52;;;;;;;8.35;5.75;;;16.30;65.00;;;;;;5033295;28;20040;-84
2021/12/25 01:52:19;;;;;;;7.63;5.70;;;16.30;65.10;;;;;;5015498;28;20136;-84
2021/12/25 01:54:45;;;;;;;9.93;5.30;;;16.30;65.10;;;;;;5033004;28;20021;-83
2021/12/25 01:57:11;;;;;;;7.43;6.10;;;16.30;65.10;;;;;;5033166;28;20022;-84
2021/12/25 01:59:37;;;;;;;7.30;5.80;;;16.30;65.10;;;;;;5032784;28;20029;-82
2021/12/25 02:02:03;;;;;;;7.72;5.63;;;16.30;65.10;;;;;;5033193;28;20022;-83
2021/12/25 02:04:28;;;;;;;8.52;5.78;;;16.30;65.10;;;;;;5015202;28;20025;-83
2021/12/25 02:06:54;;;;;;;7.18;5.75;;;16.30;65.10;;;;;;5033159;28;20447;-82
2021/12/25 02:09:20;;;;;;;6.93;5.40;;;16.30;65.10;;;;;;5032750;28;20394;-83
2021/12/25 02:11:45;;;;;;;6.80;5.63;;;16.30;65.10;;;;;;5032543;28;20499;-82
2021/12/25 02:14:11;;;;;;;7.32;4.93;;;16.30;65.10;;;;;;5014978;28;20524;-83
2021/12/25 02:16:51;;;;;;;8.13;5.70;;;16.30;65.10;;;;;;5032484;28;20504;-82
2021/12/25 02:19:31;;;;;;;7.43;5.25;;;16.30;65.10;;;;;;5014789;28;20026;-82
2021/12/25 02:22:00;;;;;;;7.47;5.22;;;16.30;65.10;;;;;;5032422;28;20028;-82
2021/12/25 02:24:26;;;;;;;7.07;5.25;;;16.30;65.10;;;;;;5014821;28;20109;-82
2021/12/25 02:26:52;;;;;;;6.57;5.20;;;16.30;65.10;;;;;;5032237;28;20586;-83
2021/12/25 02:29:18;;;;;;;6.38;5.18;;;16.30;65.10;;;;;;5032380;28;20033;-82
2021/12/25 02:31:44;;;;;;;7.35;4.95;;;16.30;65.10;;;;;;5032140;28;20037;-82
2021/12/25 02:34:09;;;;;;;7.63;4.95;;;16.30;65.10;;;;;;5032378;28;20036;-82
2021/12/25 02:36:35;;;;;;;7.00;5.35;;;16.30;65.10;;;;;;5031905;28;20079;-80
2021/12/25 02:39:01;;;;;;;6.18;5.00;;;16.40;65.20;;;;;;5051522;28;20087;-83
2021/12/25 02:41:26;;;;;;;7.70;5.70;;;16.40;65.90;;;;;;5052183;28;20029;-83
2021/12/25 02:43:52;;;;;;;6.60;4.70;;;16.30;65.10;;;;;;5051541;28;20079;-83
2021/12/25 02:46:18;;;;;;;7.35;5.03;;;16.30;65.10;;;;;;5051198;28;20459;-83
2021/12/25 02:48:44;;;;;;;6.90;4.95;;;16.40;65.10;;;;;;5050845;28;20199;-82
2021/12/25 02:51:11;;;;;;;6.90;5.18;;;16.40;65.10;;;;;;5033183;28;20047;-82
2021/12/25 02:53:38;;;;;;;7.10;5.35;;;16.40;65.80;;;;;;5032919;28;20464;-83
2021/12/25 02:56:05;;;;;;;8.07;5.07;;;16.40;65.10;;;;;;5051296;28;20033;-84
2021/12/25 02:58:30;;;;;;;8.90;5.82;;;16.30;65.10;;;;;;5051351;28;20416;-84
2021/12/25 03:01:00;;;;;;;6.22;5.05;;;16.40;65.10;;;;;;5050715;28;20021;-83
2021/12/25 03:03:26;;;;;;;6.70;5.38;;;16.40;65.10;;;;;;5033651;28;20377;-84
2021/12/25 03:05:52;;;;;;;8.43;5.00;;;16.40;65.10;;;;;;5050136;28;20070;-85
2021/12/25 03:08:18;;;;;;;6.13;5.22;;;16.40;65.10;;;;;;5033241;28;20035;-84
2021/12/25 03:10:45;;;;;;;7.88;5.05;;;16.40;65.10;;;;;;5050739;28;20072;-85
2021/12/25 03:15:47;;;;;;;7.22;5.32;;;16.40;65.20;;;;;;5050465;28;20036;-82
2021/12/25 03:18:17;;;;;;;6.40;5.15;;;16.40;65.20;;;;;;5050828;28;20162;-84
2021/12/25 03:20:46;;;;;;;6.78;4.82;;;16.40;65.20;;;;;;5032403;28;20479;-82
2021/12/25 03:23:17;;;;;;;7.68;5.20;;;16.40;65.20;;;;;;5050708;28;20028;-84
2021/12/25 03:25:44;;;;;;;7.28;5.72;;;16.40;65.20;;;;;;5050436;28;20067;-84
2021/12/25 03:28:10;;;;;;;6.55;4.68;;;16.40;65.20;;;;;;5050549;28;20017;-84
2021/12/25 03:30:39;;;;;;;5.95;4.70;;;16.40;65.20;;;;;;5032376;28;20036;-82
2021/12/25 03:33:07;;;;;;;7.10;5.35;;;16.40;65.20;;;;;;5040488;28;20028;-74
2021/12/25 03:35:34;;;;;;;7.13;4.97;;;16.40;65.30;;;;;;5030820;28;20516;-84
2021/12/25 03:38:02;;;;;;;5.95;4.68;;;16.40;65.20;;;;;;5012749;28;20033;-83
2021/12/25 03:40:28;;;;;;;7.70;5.55;;;16.40;65.20;;;;;;5030515;28;20021;-83
2021/12/25 03:42:54;;;;;;;6.00;4.70;;;16.40;65.20;;;;;;5030220;28;20111;-81
2021/12/25 03:45:20;;;;;;;6.53;4.82;;;16.40;65.20;;;;;;5002904;28;1108421;-83
2021/12/25 03:47:48;;;;;;;6.95;5.28;;;16.40;65.10;;;;;;5050375;28;20090;-83
2021/12/25 03:58:30;;;;;;;6.80;4.82;;;16.40;65.20;;;;;;5051155;28;20524;-83
2021/12/25 04:01:01;;;;;;;6.97;5.22;;;16.40;65.30;;;;;;5031858;28;20111;-83
2021/12/25 04:03:42;;;;;;;6.43;4.65;;;16.40;65.30;;;;;;5030975;28;20525;-81
2021/12/25 04:06:10;;;;;;;5.15;3.83;;;16.40;65.30;;;;;;5031298;28;20017;-85
2021/12/25 04:08:42;;;;;;;5.22;3.85;;;16.40;65.20;;;;;;5031446;28;20029;-82
2021/12/25 04:11:26;;;;;;;5.43;4.30;;;16.50;65.20;;;;;;5031682;28;20030;-80
2021/12/25 04:13:52;;;;;;;6.07;4.47;;;16.40;65.20;;;;;;5031422;28;20535;-84
2021/12/25 04:16:18;;;;;;;7.40;5.00;;;16.50;65.20;;;;;;5031146;28;20022;-83
2021/12/25 04:18:43;;;;;;;5.43;4.07;;;16.50;65.30;;;;;;5030790;28;20541;-83
2021/12/25 04:21:09;;;;;;;6.45;4.35;;;16.50;65.30;;;;;;5031129;28;20026;-84
2021/12/25 04:23:38;;;;;;;4.50;3.63;;;16.50;65.20;;;;;;5031276;28;20029;-77
2021/12/25 04:26:04;;;;;;;6.18;4.30;;;16.50;65.20;;;;;;5030798;28;20021;-84
2021/12/25 04:28:40;;;;;;;6.18;4.05;;;16.50;65.30;;;;;;5030888;28;20148;-83
2021/12/25 05:06:06;;;;;;;4.07;2.92;;;16.50;65.10;;;;;;5034228;28;20030;-81
2021/12/25 05:08:32;;;;;;;4.00;3.00;;;16.50;65.20;;;;;;5034054;28;20529;-84
2021/12/25 05:10:58;;;;;;;4.05;3.13;;;16.50;65.10;;;;;;5033820;28;20041;-83
2021/12/25 05:13:24;;;;;;;5.03;3.22;;;16.50;65.10;;;;;;5033519;28;20091;-83
2021/12/25 05:15:49;;;;;;;3.97;3.40;;;16.50;65.10;;;;;;5033916;28;20049;-83
2021/12/25 05:18:16;;;;;;;4.75;3.55;;;16.50;65.10;;;;;;5033506;28;20053;-82
2021/12/25 05:20:41;;;;;;;3.55;3.03;;;16.50;65.10;;;;;;5033715;28;20018;-82
2021/12/25 05:23:08;;;;;;;4.72;3.40;;;16.60;65.20;;;;;;5033797;28;20037;-79
2021/12/25 05:25:34;;;;;;;4.47;3.25;;;16.50;65.10;;;;;;5033721;28;20129;-83
2021/12/25 05:28:01;;;;;;;4.50;3.13;;;16.60;65.20;;;;;;5033708;28;20081;-83
2021/12/25 05:30:28;;;;;;;4.50;3.63;;;16.50;65.10;;;;;;5015573;28;20041;-82
2021/12/25 05:32:54;;;;;;;4.50;3.22;;;16.50;65.10;;;;;;5033446;28;20041;-83
2021/12/25 05:35:20;;;;;;;3.45;2.72;;;16.50;65.10;;;;;;5033130;28;20032;-82
2021/12/25 05:37:46;;;;;;;3.50;2.85;;;16.50;65.10;;;;;;5041277;28;20033;-82
2021/12/25 05:40:12;;;;;;;4.03;3.40;;;16.50;65.10;;;;;;5053068;28;20036;-80
2021/12/25 05:42:39;;;;;;;4.22;3.55;;;16.50;65.10;;;;;;5053301;28;20091;-82
2021/12/25 05:45:05;;;;;;;4.03;3.00;;;16.50;65.10;;;;;;5053439;28;20078;-83
2021/12/25 05:47:31;;;;;;;4.07;3.05;;;16.50;65.10;;;;;;5052854;28;20039;-83
2021/12/25 05:49:57;;;;;;;3.75;2.83;;;16.60;65.20;;;;;;5047451;28;20038;-84
2021/12/25 05:52:23;;;;;;;3.88;3.20;;;16.60;65.20;;;;;;5033773;28;20033;-82
2021/12/25 05:54:49;;;;;;;4.35;3.28;;;16.50;65.10;;;;;;5033563;28;20051;-84
2021/12/25 05:57:15;;;;;;;3.72;3.17;;;16.60;65.20;;;;;;5033019;28;20033;-84
2021/12/25 05:59:40;;;;;;;3.58;2.70;;;16.60;65.20;;;;;;5033041;28;20018;-84
2021/12/25 06:02:06;;;;;;;6.25;3.38;;;16.60;65.20;;;;;;5046663;28;20060;-84
2021/12/25 06:04:32;;;;;;;5.15;3.15;;;16.60;65.20;;;;;;5052768;28;20029;-84
2021/12/25 06:06:57;;;;;;;4.22;2.70;;;16.60;65.20;;;;;;5046297;28;20044;-86
2021/12/25 06:09:23;;;;;;;4.80;2.83;;;16.60;65.20;;;;;;5016581;28;20076;-84
2021/12/25 06:11:49;;;;;;;3.53;2.78;;;16.60;65.10;;;;;;5032305;28;20030;-85
2021/12/25 06:14:19;;;;;;;3.25;2.42;;;16.60;65.20;;;;;;5037959;28;20028;-83
2021/12/25 06:16:46;;;;;;;3.80;2.67;;;16.60;65.10;;;;;;5052314;28;20447;-84
2021/12/25 06:19:13;;;;;;;3.60;2.40;;;16.60;65.10;;;;;;5052434;28;20025;-81
2021/12/25 06:21:38;;;;;;;3.22;2.47;;;16.60;65.10;;;;;;5052983;28;20025;-75
2021/12/25 06:24:05;;;;;;;3.80;2.60;;;16.60;65.10;;;;;;5053093;28;20040;-83
2021/12/25 06:26:32;;;;;;;3.42;2.78;;;16.60;65.20;;;;;;5052238;28;20025;-83
2021/12/25 06:28:58;;;;;;;3.58;2.75;;;16.60;65.20;;;;;;5052396;28;20033;-83
2021/12/25 06:31:24;;;;;;;3.15;2.30;;;16.60;65.10;;;;;;5052070;28;20036;-85
2021/12/25 06:33:50;;;;;;;4.65;3.08;;;16.60;65.20;;;;;;5051427;28;20055;-83
2021/12/25 06:36:16;;;;;;;2.72;2.17;;;16.60;65.20;;;;;;5033875;28;20060;-84
2021/12/25 06:38:42;;;;;;;3.40;2.83;;;16.60;65.20;;;;;;5052534;28;20056;-85
2021/12/25 06:41:10;;;;;;;3.38;2.40;;;16.60;65.10;;;;;;5043355;28;20064;-85
2021/12/25 06:43:36;;;;;;;3.22;2.53;;;16.70;65.20;;;;;;5032575;28;20024;-85
2021/12/25 06:46:02;;;;;;;3.33;2.63;;;16.70;65.20;;;;;;5014897;28;20030;-84
2021/12/25 06:48:28;;;;;;;4.93;2.25;;;16.60;65.20;;;;;;5032025;28;20017;-86
2021/12/25 06:50:54;;;;;;;2.97;2.33;;;16.70;65.20;;;;;;4997970;28;20102;-84
2021/12/25 06:53:19;;;;;;;2.88;2.15;;;16.70;65.20;;;;;;5031868;28;20017;-86
2021/12/25 06:55:45;;;;;;;3.42;2.33;;;16.70;65.30;;;;;;5043394;28;20061;-85
2021/12/25 06:58:11;;;;;;;3.75;2.70;;;16.60;65.20;;;;;;5037054;28;20100;-74
2021/12/25 07:00:37;;;;;;;3.45;2.42;;;16.60;65.20;;;;;;5037968;28;20510;-85
2021/12/25 07:03:02;;;;;;;2.45;2.05;;;16.70;65.20;;;;;;5044978;28;20017;-82
2021/12/25 07:05:28;;;;;;;3.22;2.47;;;16.60;65.20;;;;;;5039834;28;20061;-82
2021/12/25 07:07:54;;;;;;;2.80;2.08;;;16.60;65.20;;;;;;5040030;28;20121;-82
2021/12/25 07:10:21;;;;;;;2.80;2.17;;;16.60;65.20;;;;;;5036999;28;20044;-82
2021/12/25 07:12:49;;;;;;;2.63;2.05;;;16.60;65.30;;;;;;5020726;28;20036;-84
2021/12/25 07:15:15;;;;;;;5.75;2.20;;;16.60;65.30;;;;;;5023421;28;20668;-83
2021/12/25 07:17:41;;;;;;;3.35;2.50;;;16.60;65.40;;;;;;5036167;28;20095;-74
2021/12/25 07:20:08;;;;;;;3.75;2.10;;;16.70;65.40;;;;;;5038242;28;20055;-83
2021/12/25 07:22:34;;;;;;;5.07;2.17;;;16.70;65.50;;;;;;5037017;28;20034;-84
2021/12/25 07:25:00;;;;;;;3.30;2.15;;;16.70;65.70;;;;;;5038628;28;20052;-84
2021/12/25 07:27:26;;;;;;;2.45;2.10;;;16.70;65.90;;;;;;5038428;28;20060;-82
2021/12/25 07:29:51;;;;;;;4.50;2.58;;;16.70;66.20;;;;;;5018334;28;20079;-85
2021/12/25 07:32:17;;;;;;;2.55;2.10;;;16.70;66.30;;;;;;5020751;28;20101;-85
2021/12/25 07:34:46;;;;;;;4.00;2.40;;;16.70;66.50;;;;;;5036039;28;20556;-81
2021/12/25 07:37:13;;;;;;;3.10;2.15;;;16.70;66.70;;;;;;5039189;28;20105;-81
2021/12/25 07:39:40;;;;;;;5.47;2.33;;;16.70;66.90;;;;;;5038046;28;20021;-84
2021/12/25 07:42:06;;;;;;;2.00;1.67;;;16.80;67.00;;;;;;5037012;28;20060;-83
2021/12/25 07:44:32;;;;;;;4.63;1.92;;;16.80;67.20;;;;;;5018157;28;20485;-76
2021/12/25 07:46:58;;;;;;;2.78;2.10;;;16.80;67.20;;;;;;5037153;28;20108;-84
2021/12/25 07:49:24;;;;;;;3.08;2.10;;;16.80;67.40;;;;;;5038489;28;20160;-79
2021/12/25 07:51:50;;;;;;;7.07;2.00;;;16.80;67.40;;;;;;5018323;28;20153;-81
2021/12/25 07:54:15;;;;;;;7.75;1.85;;;16.80;67.30;;;;;;5036374;28;20400;-79
2021/12/25 07:56:41;;;;;;;5.13;1.95;;;16.80;67.70;;;;;;5036720;28;20100;-80
2021/12/25 07:59:07;;;;;;;5.22;2.13;;;16.80;68.10;;;;;;5017943;28;20090;-76
2021/12/25 08:01:35;;;;;;;2.20;1.52;;;16.80;68.20;;;;;;5034462;28;20025;-80
2021/12/25 08:04:02;;;;;;;2.50;1.80;;;16.80;68.10;;;;;;5041480;28;20025;-80
2021/12/25 08:06:28;;;;;;;4.55;2.15;;;16.90;68.30;;;;;;5030741;28;20036;-80
2021/12/25 08:08:56;;;;;;;3.78;2.38;;;16.90;68.20;;;;;;5046713;28;20179;-80
2021/12/25 08:11:22;;;;;;;5.07;2.25;;;16.90;68.00;;;;;;5035989;28;20075;-81
2021/12/25 08:13:47;;;;;;;2.47;1.90;;;16.90;68.80;;;;;;5036161;28;20469;-87
2021/12/25 08:16:13;;;;;;;3.22;1.90;;;16.90;68.60;;;;;;5019471;28;20029;-86
2021/12/25 08:18:39;;;;;;;6.93;2.47;;;16.90;68.60;;;;;;5018873;28;20401;-84
2021/12/25 08:21:07;;;;;;;4.38;2.20;;;16.90;68.70;;;;;;5018082;28;20075;-91
2021/12/25 08:23:33;;;;;;;4.68;2.00;;;17.00;68.60;;;;;;5018658;28;20029;-85
2021/12/25 08:26:00;;;;;;;5.38;1.55;;;17.00;68.30;;;;;;5017938;28;20028;-81
2021/12/25 08:28:26;;;;;;;3.17;1.95;;;17.00;68.60;;;;;;5035826;28;20500;-87
2021/12/25 08:30:51;;;;;;;3.78;1.70;;;17.00;68.70;;;;;;5043261;28;20152;-86
2021/12/25 08:33:17;;;;;;;4.10;1.83;;;17.00;68.30;;;;;;5013782;28;20071;-85
2021/12/25 08:35:43;;;;;;;3.25;1.92;;;17.00;68.20;;;;;;5033542;28;20080;-85
2021/12/25 08:38:11;;;;;;;3.65;1.55;;;17.10;68.00;;;;;;5035159;28;20033;-84
2021/12/25 08:40:38;;;;;;;4.68;2.30;;;17.00;67.80;;;;;;5035016;28;20099;-85
2021/12/25 08:43:05;;;;;;;3.80;1.50;;;17.00;67.70;;;;;;5034896;28;20148;-83
2021/12/25 08:48:08;;;;;;;;;;;17.10;67.50;;;;;;5035258;28;20048;-76
2021/12/25 08:50:34;;;;;;;1.95;1.38;;;17.10;67.40;;;;;;5035066;28;19920;-76
2021/12/25 08:53:00;;;;;;;2.17;1.30;;;17.10;67.30;;;;;;5034289;28;20075;-85
2021/12/25 08:55:27;;;;;;;2.50;1.17;;;17.10;67.30;;;;;;5033966;28;20021;-79
2021/12/25 08:57:53;;;;;;;2.00;1.20;;;17.10;67.10;;;;;;5035106;28;20022;-82
2021/12/25 09:00:19;;;;;;;4.88;1.40;;;17.10;67.20;;;;;;5034037;28;20048;-85
2021/12/25 09:02:46;;;;;;;3.40;1.40;;;17.10;67.20;;;;;;5041638;28;20463;-80
2021/12/25 09:05:12;;;;;;;4.00;1.65;;;17.20;67.40;;;;;;5052328;28;20443;-81
2021/12/25 09:07:38;;;;;;;10.93;1.60;;;;;;;;;;5054196;28;20025;-79
2021/12/25 09:10:04;;;;;;;3.40;1.40;;;;;;;;;;5020601;28;20747;-78
2021/12/25 09:12:33;;;;;;;1.75;1.10;;;;;;;;;;5036198;28;20409;-79
2021/12/25 09:15:00;;;;;;;2.95;1.27;;;;;;;;;;5036277;28;20029;-79
2021/12/25 09:17:26;;;;;;;3.08;1.42;;;;;;;;;;5053479;28;20024;-83
2021/12/25 09:19:52;;;;;;;2.33;1.40;;;;;;;;;;5052875;28;20032;-82
2021/12/25 09:22:18;;;;;;;4.32;1.45;;;;;;;;;;5053355;28;20028;-81
2021/12/25 09:24:44;;;;;;;2.20;1.23;;;;;;;;;;5053659;28;20465;-80
2021/12/25 09:27:10;;;;;;;3.70;1.05;;;;;;;;;;5053854;28;20029;-80
2021/12/25 09:29:36;;;;;;;12.55;1.42;;;;;;;;;;5031735;28;20048;-77
2021/12/25 09:32:03;;;;;;;3.65;1.38;;;;;;;;;;5035935;28;20022;-79
2021/12/25 09:34:29;;;;;;;5.43;1.15;;;;;;;;;;5034210;28;20041;-83
2021/12/25 09:36:55;;;;;;;2.65;0.93;;;;;;;;;;5033429;28;20025;-79
2021/12/25 09:39:21;;;;;;;3.00;1.83;;;;;;;;;;5034069;28;20033;-76
2021/12/25 09:41:47;;;;;;;3.75;0.90;;;;;;;;;;5016470;28;20029;-79
2021/12/25 09:44:13;;;;;;;3.42;1.00;;;;;;;;;;5033980;28;20044;-81
2021/12/25 09:46:39;;;;;;;2.92;1.10;;;;;;;;;;5034441;28;20464;-79
2021/12/25 09:49:05;;;;;;;1.88;0.85;;;;;;;;;;5033127;28;20436;-82
2021/12/25 09:51:32;;;;;;;2.60;0.80;;;;;;;;;;5032809;28;20037;-82
2021/12/25 09:54:06;;;;;;;4.88;1.20;;;;;;;;;;5033090;28;20026;-81
2021/12/25 09:56:33;;;;;;;3.92;1.20;;;;;;;;;;5021818;28;20036;-82
2021/12/25 09:59:00;;;;;;;2.50;0.82;;;;;;;;;;5061181;28;20083;-81
2021/12/25 10:01:35;;;;;;;1.23;0.80;;;;;;;;;;5058011;28;20032;-82
2021/12/25 10:04:01;;;;;;;3.85;1.00;;;;;;;;;;5054586;28;20032;-82
2021/12/25 10:06:29;;;;;;;1.92;1.02;;;;;;;;;;5051770;28;20027;-82
2021/12/25 10:08:55;;;;;;;1.90;1.05;;;;;;;;;;5051460;28;20481;-82
2021/12/25 10:11:22;;;;;;;4.63;1.02;;;;;;;;;;5051577;28;20033;-82
2021/12/25 10:13:48;;;;;;;1.80;1.00;;;;;;;;;;5041632;28;20020;-82
2021/12/25 10:16:22;;;;;;;3.00;0.88;;;;;;;;;;5049677;28;20064;-81
2021/12/25 10:18:49;;;;;;;2.75;1.23;;;;;;;;;;5042657;28;20414;-83
2021/12/25 10:21:16;;;;;;;2.58;0.80;;;;;;;;;;5051156;28;20021;-79
2021/12/25 10:23:42;;;;;;;2.15;0.80;;;;;;;;;;5051597;28;20029;-81
2021/12/25 10:26:08;;;;;;;2.90;0.88;;;;;;;;;;5051715;28;20029;-83
2021/12/25 10:28:39;;;;;;;3.22;0.80;;;;;;;;;;5044555;28;20040;-81
2021/12/25 10:31:08;;;;;;;2.55;1.00;;;;;;;;;;5050640;28;20507;-82
2021/12/25 10:33:39;;;;;;;3.28;1.00;;;;;;;;;;5050538;28;20488;-81
2021/12/25 10:36:10;;;;;;;4.43;0.80;;;;;;;;;;5027022;28;20032;-79
2021/12/25 10:38:37;;;;;;;2.10;0.70;;;;;;;;;;5051463;28;20397;-75
2021/12/25 10:41:16;;;;;;;4.95;0.85;;;;;;;;;;5044117;28;20025;-77
2021/12/25 10:43:43;;;;;;;2.78;1.15;;;;;;;;;;5050982;28;20025;-78
2021/12/25 10:46:10;;;;;;;1.85;0.65;;;;;;;;;;5051385;28;20143;-79
2021/12/25 10:48:36;;;;;;;2.40;1.20;;;;;;;;;;5050853;28;20029;-79
2021/12/25 10:51:03;;;;;;;1.50;0.93;;;;;;;;;;5052012;28;20055;-79
2021/12/25 10:53:37;;;;;;;2.60;1.05;;;;;;;;;;5050817;28;20021;-79
2021/12/25 10:56:14;;;;;;;3.10;1.20;;;;;;;;;;5050794;28;20032;-79
2021/12/25 10:58:40;;;;;;;1.65;1.00;;;;;;;;;;5049188;28;20074;-78
2021/12/25 11:01:08;;;;;;;1.92;0.90;;;;;;;;;;5048632;28;20036;-77
2021/12/25 11:03:38;;;;;;;2.90;1.00;;;;;;;;;;5044228;28;20079;-78
2021/12/25 11:06:10;;;;;;;5.88;1.33;;;;;;;;;;5040579;28;20116;-76
2021/12/25 11:08:37;;;;;;;5.90;1.05;;;;;;;;;;5050577;28;20032;-78
2021/12/25 11:11:14;;;;;;;1.75;1.00;;;;;;;;;;5049015;28;20039;-77
2021/12/25 11:13:41;;;;;;;3.70;1.10;;;;;;;;;;5043266;28;20057;-78
2021/12/25 11:16:08;;;;;;;1.83;0.90;;;;;;;;;;5042679;28;20017;-78
2021/12/25 11:19:02;;;;;;;3.95;1.13;;;;;;;;;;5024044;28;20087;-78
2021/12/25 11:21:29;;;;;;;1.98;1.08;;;;;;;;;;5024301;28;20020;-78
2021/12/25 11:24:05;;;;;;;3.47;1.23;;;;;;;;;;5036387;28;20048;-77
2021/12/25 11:26:31;;;;;;;1.73;1.00;;;;;;;;;;5033165;28;20036;-75
2021/12/25 11:28:57;;;;;;;3.83;1.38;;;;;;;;;;5021456;28;20029;-77
2021/12/25 11:31:23;;;;;;;3.08;1.13;;;;;;;;;;5023025;28;20021;-76
2021/12/25 11:33:50;;;;;;;1.20;1.00;;;;;;;;;;5041892;28;20104;-76
2021/12/25 11:36:17;;;;;;;2.17;1.20;;;;;;;;;;5033308;28;20025;-76
2021/12/25 11:38:43;;;;;;;5.47;1.10;;;;;;;;;;5031237;28;20021;-77
2021/12/25 11:41:12;;;;;;;3.10;1.10;;;;;;;;;;5031459;28;20018;-76
2021/12/25 11:43:41;;;;;;;4.03;0.85;;;;;;;;;;5031381;28;20022;-76
2021/12/25 11:46:11;;;;;;;4.25;1.05;;;;;;;;;;5031528;28;20021;-75
2021/12/25 11:48:38;;;;;;;1.35;1.00;;;;;;;;;;5038301;28;20051;-77
2021/12/25 11:51:06;;;;;;;2.42;1.10;;;;;;;;;;5040889;28;20046;-77
2021/12/25 11:54:03;;;;;;;3.22;1.20;;;;;;;;;;5022104;28;20048;-78
2021/12/25 11:56:42;;;;;;;2.97;1.95;;;;;;;;;;5022457;28;20087;-78
2021/12/25 11:59:13;;;;;;;2.40;1.10;;;;;;;;;;5023002;28;20048;-80
2021/12/25 12:01:39;;;;;;;1.90;1.30;;;;;;;;;;5031996;28;20083;-81
2021/12/25 12:04:11;;;;;;;3.42;1.20;;;;;;;;;;5050928;28;20029;-78
2021/12/25 12:09:21;;;;;;;1.95;0.90;;;19.60;61.10;;;;;;5050731;28;20029;-77
2021/12/25 12:11:50;;;;;;;3.70;1.00;;;19.60;62.00;;;;;;5019420;28;20099;-77
2021/12/25 12:14:27;;;;;;;7.22;1.25;;;19.60;61.80;;;;;;5039317;28;20092;-78
2021/12/25 12:16:56;;;;;;;3.05;1.48;;;19.60;61.80;;;;;;5035104;28;20028;-77
2021/12/25 12:22:37;;;;;;;3.73;1.00;;;;;;;;;;5035111;28;20497;-79
2021/12/25 12:27:32;;;;;;;2.78;1.10;;;;;;;;;;5048403;28;20296;-77
2021/12/25 12:29:59;;;;;;;2.60;1.30;;;;;;;;;;5034576;28;20073;-80
2021/12/25 12:32:26;;;;;;;3.28;1.17;;;;;;;;;;5017567;28;20029;-82
2021/12/25 12:34:53;;;;;;;2.83;1.27;;;;;;;;;;5026016;28;20087;-76
2021/12/25 12:37:19;;;;;;;4.40;1.38;;;;;;;;;;5041047;28;20024;-77
2021/12/25 12:40:04;;;;;;;1.52;0.90;;;;;;;;;;5039554;28;20109;-78
2021/12/25 12:45:11;;;;;;;1.90;1.13;;;;;;;;;;5041885;28;20057;-77
2021/12/25 12:47:37;;;;;;;1.88;1.00;;;;;;;;;;5034696;28;20036;-77
2021/12/25 12:50:07;;;;;;;4.00;1.13;;;;;;;;;;5034165;28;20113;-76
2021/12/25 12:52:38;;;;;;;4.18;1.52;;;;;;;;;;5021968;28;20029;-78
2021/12/25 12:55:04;;;;;;;1.67;1.08;;;;;;;;;;5053062;28;20036;-77
2021/12/25 12:57:33;;;;;;;4.03;1.48;;;;;;;;;;5052396;28;20075;-77
2021/12/25 13:00:09;;;;;;;7.68;1.40;;;;;;;;;;5054090;28;20039;-77
2021/12/25 13:02:39;;;;;;;2.65;1.50;;;;;;;;;;5053721;28;20036;-76
2021/12/25 13:05:05;;;;;;;2.90;1.42;;;;;;;;;;5053852;28;20031;-77
2021/12/25 13:07:33;;;;;;;5.10;1.50;;;;;;;;;;5035796;28;20029;-76
2021/12/25 13:10:05;;;;;;;1.90;1.33;;;;;;;;;;5053920;28;20025;-77
2021/12/25 13:12:38;;;;;;;2.55;1.55;;;;;;;;;;5053717;28;20021;-76
2021/12/25 13:15:10;;;;;;;3.20;1.30;;;;;;;;;;5050993;28;20397;-76
2021/12/25 13:17:36;;;;;;;2.58;1.52;;;;;;;;;;5036079;28;20396;-76
2021/12/25 13:20:03;;;;;;;3.33;1.27;;;;;;;;;;5053468;28;20025;-77
2021/12/25 13:22:29;;;;;;;5.93;1.45;;;;;;;;;;5040934;28;20032;-78
2021/12/25 13:25:06;;;;;;;6.15;1.45;;;;;;;;;;5033673;28;20397;-78
2021/12/25 13:27:32;;;;;;;5.38;1.38;;;;;;;;;;5033508;28;20551;-77
2021/12/25 13:30:05;;;;;;;4.82;1.58;;;;;;;;;;5015749;28;20108;-78
2021/12/25 13:32:31;;;;;;;2.00;1.30;;;;;;;;;;5033372;28;20423;-76
2021/12/25 13:34:57;;;;;;;6.82;1.55;;;;;;;;;;5015715;28;20409;-76
2021/12/25 13:37:23;;;;;;;17.73;2.20;;;;;;;;;;5033271;28;20068;-77
2021/12/25 13:39:49;;;;;;;4.07;1.60;;;;;;;;;;5033428;28;20087;-78
2021/12/25 13:42:16;;;;;;;4.22;1.40;;;;;;;;;;5033114;28;20504;-77
2021/12/25 13:44:44;;;;;;;7.22;1.40;;;;;;;;;;5037266;28;20033;-77
2021/12/25 13:47:10;;;;;;;5.05;1.33;;;;;;;;;;5017990;28;20056;-76
2021/12/25 13:49:47;;;;;;;3.85;1.33;;;;;;;;;;5038119;28;20570;-76
2021/12/25 13:52:21;;;;;;;3.92;0.95;;;;;;;;;;5052879;28;20074;-78
2021/12/25 13:55:00;;;;;;;2.70;1.25;;;;;;;;;;5035157;28;20455;-75
2021/12/25 13:57:27;;;;;;;2.17;1.20;;;;;;;;;;5030087;28;20070;-75
2021/12/25 13:59:55;;;;;;;4.70;1.05;;;;;;;;;;5041891;28;20028;-75
2021/12/25 14:02:21;;;;;;;2.80;1.17;;;;;;;;;;5040209;28;20025;-78
2021/12/25 14:04:48;;;;;;;1.50;1.02;;;;;;;;;;5037246;28;20485;-77
2021/12/25 14:07:19;;;;;;;1.60;1.10;;;;;;;;;;5014900;28;20466;-76
2021/12/25 14:09:53;;;;;;;2.47;1.15;;;;;;;;;;5032754;28;20026;-77
2021/12/25 14:12:23;;;;;;;1.80;0.82;;;;;;;;;;5032602;28;20112;-77
2021/12/25 14:14:49;;;;;;;2.40;1.05;;;;;;;;;;5014795;28;20013;-76
2021/12/25 14:17:15;;;;;;;1.38;0.80;;;;;;;;;;5014732;28;20029;-78
2021/12/25 14:19:41;;;;;;;4.00;1.30;;;;;;;;;;5033169;28;20429;-77
2021/12/25 14:22:07;;;;;;;3.60;1.10;;;;;;;;;;5033744;28;20072;-76
2021/12/25 14:24:44;;;;;;;2.95;1.48;;;;;;;;;;5039666;28;20025;-77
2021/12/25 14:27:15;;;;;;;2.25;0.95;;;;;;;;;;5041107;28;20032;-77
2021/12/25 14:29:41;;;;;;;2.78;1.10;;;;;;;;;;5042984;28;20503;-78
2021/12/25 14:32:22;;;;;;;1.10;0.90;;;;;;;;;;5041561;28;20036;-77
2021/12/25 14:34:48;;;;;;;8.32;1.05;;;19.60;62.10;;;;;;5041153;28;20028;-79
2021/12/25 14:37:15;;;;;;;3.03;1.10;;;20.30;61.80;;;;;;5042288;28;20091;-79
2021/12/25 14:39:41;;;;;;;2.50;1.20;;;20.30;60.90;;;;;;5018733;28;20524;-80
2021/12/25 14:42:07;;;;;;;1.40;1.10;;;20.30;60.80;;;;;;5014754;28;20033;-79
2021/12/25 14:44:33;;;;;;;2.22;0.95;;;20.20;60.60;;;;;;5032038;28;20060;-78
2021/12/25 14:47:09;;;;;;;2.10;1.08;;;20.20;60.80;;;;;;5032936;28;20026;-80
2021/12/25 14:49:42;;;;;;;2.17;1.15;;;20.20;60.90;;;;;;5032889;28;20524;-79
2021/12/25 14:52:08;;;;;;;4.53;1.10;;;20.20;61.00;;;;;;5033443;28;20030;-79
2021/12/25 14:54:34;;;;;;;3.70;1.20;;;20.20;61.10;;;;;;5050627;28;20098;-79
2021/12/25 14:57:01;;;;;;;4.20;1.63;;;20.10;61.20;;;;;;5031388;28;20057;-79
2021/12/25 14:59:29;;;;;;;2.47;1.00;;;20.10;61.20;;;;;;5035889;28;20497;-79